createdAt,value
2023-02-19T00:01:54.876Z,95334.55
2023-02-19T00:04:23.940Z,95334.52
2023-02-19T00:06:52.195Z,95332.17
2023-02-19T00:09:21.740Z,95335.41
2023-02-19T00:11:50.494Z,95334.05
2023-02-19T00:14:21.632Z,95339.33
2023-02-19T00:16:50.373Z,95349.84
2023-02-19T00:19:20.990Z,95357.07
2023-02-19T00:21:52.738Z,95362.98
2023-02-19T00:24:22.143Z,95360.98
2023-02-19T00:26:50.614Z,95366.18
2023-02-19T00:29:21.601Z,95370.35
2023-02-19T00:31:51.211Z,95373.59
2023-02-19T00:34:19.886Z,95384.53
2023-02-19T00:36:48.424Z,95382.20
2023-02-19T00:39:18.731Z,95382.71
2023-02-19T00:41:47.848Z,95384.80
2023-02-19T00:44:16.244Z,95383.16
2023-02-19T00:46:47.052Z,95385.02
2023-02-19T00:49:23.390Z,95385.35
2023-02-19T00:51:53.246Z,95387.35
2023-02-19T00:54:22.959Z,95387.88
2023-02-19T00:56:51.796Z,95387.63
2023-02-19T00:59:20.745Z,95383.45
2023-02-19T01:01:49.967Z,95387.81
2023-02-19T01:04:19.266Z,95387.80
2023-02-19T01:06:49.125Z,95383.36
2023-02-19T01:09:17.524Z,95382.73
2023-02-19T01:11:46.055Z,95382.30
2023-02-19T01:14:14.182Z,95376.80
2023-02-19T01:16:42.503Z,95380.02
2023-02-19T01:19:10.648Z,95376.27
2023-02-19T01:21:40.961Z,95372.80
2023-02-19T01:24:11.436Z,95365.71
2023-02-19T01:26:40.731Z,95367.70
2023-02-19T01:29:09.802Z,95368.17
2023-02-19T01:31:40.076Z,95366.50
2023-02-19T01:34:12.337Z,95363.55
2023-02-19T01:36:41.293Z,95368.47
2023-02-19T01:39:10.877Z,95365.37
2023-02-19T01:41:41.134Z,95365.79
2023-02-19T01:44:12.884Z,95367.30
2023-02-19T01:46:51.600Z,95369.91
2023-02-19T01:49:28.411Z,95373.84
2023-02-19T01:52:02.300Z,95372.80
2023-02-19T01:54:37.240Z,95372.80
2023-02-19T01:57:08.548Z,95378.55
2023-02-19T01:59:37.274Z,95379.50
2023-02-19T02:02:06.686Z,95380.13
2023-02-19T02:04:36.191Z,95384.33
2023-02-19T02:07:29.687Z,95389.02
2023-02-19T02:10:16.817Z,95385.95
2023-02-19T02:12:45.159Z,95384.91
2023-02-19T02:15:15.187Z,95381.40
2023-02-19T02:17:57.590Z,95382.27
2023-02-19T02:20:44.685Z,95386.81
2023-02-19T02:23:28.682Z,95389.08
2023-02-19T02:25:56.966Z,95393.55
2023-02-19T02:28:34.629Z,95398.84
2023-02-19T02:31:17.455Z,95402.02
2023-02-19T02:34:06.309Z,95401.69
2023-02-19T02:36:41.800Z,95404.84
2023-02-19T02:39:14.384Z,95404.96
2023-02-19T02:42:13.461Z,95405.52
2023-02-19T02:45:03.471Z,95417.73
2023-02-19T02:47:41.258Z,95421.39
2023-02-19T02:50:15.888Z,95426.66
2023-02-19T02:53:08.092Z,95426.13
2023-02-19T02:55:43.641Z,95428.30
2023-02-19T02:58:14.821Z,95434.91
2023-02-19T03:01:04.879Z,95438.14
2023-02-19T03:03:37.369Z,95441.42
2023-02-19T03:06:09.445Z,95440.21
2023-02-19T03:08:44.096Z,95439.39
2023-02-19T03:11:31.681Z,95440.69
2023-02-19T03:14:27.505Z,95436.98
2023-02-19T03:17:20.668Z,95435.39
2023-02-19T03:19:54.499Z,95435.16
2023-02-19T03:22:31.607Z,95429.97
2023-02-19T03:25:26.356Z,95433.33
2023-02-19T03:27:58.688Z,95431.75
2023-02-19T03:30:35.619Z,95434.86
2023-02-19T03:33:10.309Z,95429.47
2023-02-19T03:35:45.068Z,95430.98
2023-02-19T03:38:27.136Z,95434.16
2023-02-19T03:41:20.929Z,95434.23
2023-02-19T03:44:07.962Z,95437.84
2023-02-19T03:46:48.740Z,95434.84
2023-02-19T03:49:30.016Z,95427.05
2023-02-19T03:52:09.150Z,95429.67
2023-02-19T03:55:06.753Z,95428.38
2023-02-19T03:57:51.691Z,95430.54
2023-02-19T04:00:38.916Z,95429.98
2023-02-19T04:03:18.664Z,95425.77
2023-02-19T04:05:52.205Z,95423.70
2023-02-19T04:08:23.617Z,95428.69
2023-02-19T04:10:58.464Z,95428.46
2023-02-19T04:13:33.119Z,95432.16
2023-02-19T04:16:08.309Z,95429.48
2023-02-19T04:18:43.988Z,95435.65
2023-02-19T04:21:13.589Z,95434.85
2023-02-19T04:23:44.747Z,95439.59
2023-02-19T04:26:15.591Z,95432.69
2023-02-19T04:28:44.550Z,95435.38
2023-02-19T04:31:13.154Z,95435.10
2023-02-19T04:33:41.611Z,95447.04
2023-02-19T04:36:11.848Z,95449.61
2023-02-19T04:38:40.219Z,95454.64
2023-02-19T04:41:09.944Z,95457.07
2023-02-19T04:43:38.433Z,95455.29
2023-02-19T04:46:07.165Z,95456.30
2023-02-19T04:48:35.483Z,95451.41
2023-02-19T04:51:07.945Z,95449.71
2023-02-19T04:53:37.362Z,95450.20
2023-02-19T04:56:11.797Z,95447.62
2023-02-19T04:58:41.420Z,95445.02
2023-02-19T05:01:11.139Z,95447.98
2023-02-19T05:03:39.771Z,95450.70
2023-02-19T05:06:12.779Z,95446.02
2023-02-19T05:08:41.887Z,95445.55
2023-02-19T05:11:12.678Z,95452.77
2023-02-19T05:13:41.453Z,95455.48
2023-02-19T05:16:16.378Z,95449.91
2023-02-19T05:18:46.790Z,95446.39
2023-02-19T05:21:16.182Z,95448.51
2023-02-19T05:23:44.554Z,95446.50
2023-02-19T05:26:19.813Z,95445.83
2023-02-19T05:28:51.235Z,95446.01
2023-02-19T05:31:21.285Z,95443.18
2023-02-19T05:33:53.050Z,95441.77
2023-02-19T05:36:22.531Z,95437.27
2023-02-19T05:38:55.622Z,95430.23
2023-02-19T05:41:27.445Z,95429.45
2023-02-19T05:43:56.996Z,95431.05
2023-02-19T05:46:28.051Z,95433.83
2023-02-19T05:48:58.315Z,95430.76
2023-02-19T05:51:28.005Z,95432.97
2023-02-19T05:53:57.690Z,95430.48
2023-02-19T05:56:40.018Z,95418.66
2023-02-19T05:59:13.286Z,95417.36
2023-02-19T06:01:41.870Z,95410.16
2023-02-19T06:04:11.881Z,95401.96
2023-02-19T06:06:41.228Z,95397.52
2023-02-19T06:09:10.713Z,95403.55
2023-02-19T06:11:40.102Z,95406.83
2023-02-19T06:14:08.352Z,95407.36
2023-02-19T06:16:36.457Z,95416.54
2023-02-19T06:19:04.996Z,95422.85
2023-02-19T06:21:33.157Z,95420.35
2023-02-19T06:24:09.163Z,95419.83
2023-02-19T06:26:38.656Z,95428.99
2023-02-19T06:29:07.215Z,95428.91
2023-02-19T06:31:35.376Z,95437.00
2023-02-19T06:34:05.190Z,95439.06
2023-02-19T06:36:33.653Z,95434.81
2023-02-19T06:39:04.265Z,95427.68
2023-02-19T06:41:32.758Z,95425.52
2023-02-19T06:44:01.755Z,95413.33
2023-02-19T06:46:30.489Z,95407.06
2023-02-19T06:48:59.168Z,95401.06
2023-02-19T06:51:29.903Z,95399.05
2023-02-19T06:53:58.968Z,95395.55
2023-02-19T06:56:30.488Z,95393.13
2023-02-19T06:59:01.344Z,95387.95
2023-02-19T07:01:31.684Z,95384.32
2023-02-19T07:04:00.409Z,95391.11
2023-02-19T07:06:29.302Z,95396.00
2023-02-19T07:08:58.974Z,95393.13
2023-02-19T07:11:30.423Z,95395.23
2023-02-19T07:14:00.966Z,95397.97
2023-02-19T07:16:30.170Z,95386.58
2023-02-19T07:19:00.180Z,95384.85
2023-02-19T07:21:29.515Z,95378.06
2023-02-19T07:23:58.785Z,95384.85
2023-02-19T07:26:27.089Z,95384.02
2023-02-19T07:28:55.227Z,95385.78
2023-02-19T07:31:24.956Z,95391.48
2023-02-19T07:33:53.188Z,95397.10
2023-02-19T07:36:24.268Z,95390.98
2023-02-19T07:39:00.106Z,95387.09
2023-02-19T07:41:28.449Z,95380.39
2023-02-19T07:43:59.175Z,95373.39
2023-02-19T07:46:28.027Z,95371.30
2023-02-19T07:48:56.160Z,95367.41
2023-02-19T07:51:24.483Z,95362.25
2023-02-19T07:53:52.864Z,95365.42
2023-02-19T07:56:21.359Z,95358.73
2023-02-19T07:58:50.160Z,95356.14
2023-02-19T08:01:40.876Z,95348.61
2023-02-19T08:04:11.681Z,95345.03
2023-02-19T08:06:40.780Z,95338.47
2023-02-19T08:09:09.795Z,95332.84
2023-02-19T08:11:56.688Z,95338.75
2023-02-19T08:14:29.290Z,95339.38
2023-02-19T08:16:57.657Z,95332.72
2023-02-19T08:19:25.829Z,95330.59
2023-02-19T08:21:54.525Z,95323.58
2023-02-19T08:24:22.788Z,95323.54
2023-02-19T08:26:51.009Z,95324.46
2023-02-19T08:29:19.444Z,95336.92
2023-02-19T08:31:48.152Z,95323.46
2023-02-19T08:34:16.433Z,95321.17
2023-02-19T08:36:44.798Z,95324.35
2023-02-19T08:39:13.316Z,95325.91
2023-02-19T08:41:41.755Z,95323.57
2023-02-19T08:44:10.116Z,95322.48
2023-02-19T08:46:38.436Z,95324.30
2023-02-19T08:49:06.590Z,95327.27
2023-02-19T08:51:34.772Z,95327.61
2023-02-19T08:54:04.696Z,95327.65
2023-02-19T08:56:32.855Z,95325.54
2023-02-19T08:59:01.239Z,95323.80
2023-02-19T09:01:29.373Z,95317.82
2023-02-19T09:03:57.697Z,95318.92
2023-02-19T09:06:26.197Z,95316.35
2023-02-19T09:08:54.561Z,95313.48
2023-02-19T09:11:22.697Z,95315.55
2023-02-19T09:13:50.808Z,95313.73
2023-02-19T09:16:19.282Z,95311.67
2023-02-19T09:18:47.312Z,95315.33
2023-02-19T09:21:15.944Z,95308.15
2023-02-19T09:23:44.001Z,95312.80
2023-02-19T09:26:14.262Z,95305.06
2023-02-19T09:28:42.424Z,95308.98
2023-02-19T09:31:13.506Z,95307.23
2023-02-19T09:33:46.818Z,95299.65
2023-02-19T09:36:16.737Z,95300.17
2023-02-19T09:38:45.884Z,95296.68
2023-02-19T09:41:32.411Z,95297.84
2023-02-19T09:44:04.238Z,95302.58
2023-02-19T09:46:38.882Z,95303.31
2023-02-19T09:49:17.173Z,95320.34
2023-02-19T09:52:00.720Z,95314.73
2023-02-19T09:54:31.733Z,95325.80
2023-02-19T09:57:04.361Z,95314.91
2023-02-19T09:59:42.186Z,95305.82
2023-02-19T10:02:17.552Z,95305.91
2023-02-19T10:04:47.189Z,95306.80
2023-02-19T10:07:19.375Z,95290.75
2023-02-19T10:10:17.949Z,95285.61
2023-02-19T10:12:50.690Z,95291.34
2023-02-19T10:15:46.805Z,95301.85
2023-02-19T10:18:22.407Z,95285.07
2023-02-19T10:20:52.605Z,95299.44
2023-02-19T10:23:21.437Z,95302.09
2023-02-19T10:25:59.167Z,95300.05
2023-02-19T10:28:30.543Z,95285.91
2023-02-19T10:31:01.578Z,95278.39
2023-02-19T10:33:30.113Z,95273.72
2023-02-19T10:36:07.963Z,95281.64
2023-02-19T10:38:40.513Z,95271.66
2023-02-19T10:41:12.824Z,95265.84
2023-02-19T10:43:45.985Z,95250.42
2023-02-19T10:46:22.987Z,95245.91
2023-02-19T10:48:55.415Z,95254.58
2023-02-19T10:51:36.487Z,95251.64
2023-02-19T10:54:15.677Z,95246.45
2023-02-19T10:56:43.831Z,95248.73
2023-02-19T10:59:19.258Z,95250.56
2023-02-19T11:02:00.604Z,95250.50
2023-02-19T11:04:36.512Z,95264.83
2023-02-19T11:07:15.172Z,95262.15
2023-02-19T11:09:46.261Z,95261.20
2023-02-19T11:12:23.662Z,95255.27
2023-02-19T11:14:51.941Z,95255.88
2023-02-19T11:17:30.765Z,95245.02
2023-02-19T11:20:04.836Z,95241.11
2023-02-19T11:22:39.716Z,95241.19
2023-02-19T11:25:25.720Z,95247.06
2023-02-19T11:28:08.267Z,95241.88
2023-02-19T11:30:42.571Z,95238.41
2023-02-19T11:33:17.081Z,95240.17
2023-02-19T11:35:46.564Z,95243.95
2023-02-19T11:38:17.423Z,95241.85
2023-02-19T11:40:57.782Z,95242.34
2023-02-19T11:43:54.569Z,95240.17
2023-02-19T11:46:35.291Z,95242.60
2023-02-19T11:49:45.027Z,95239.98
2023-02-19T11:52:37.702Z,95237.59
2023-02-19T11:55:21.723Z,95234.35
2023-02-19T11:58:05.056Z,95233.27
2023-02-19T12:00:45.039Z,95230.41
2023-02-19T12:03:28.544Z,95221.45
2023-02-19T12:06:24.105Z,95226.02
2023-02-19T12:09:16.613Z,95222.21
2023-02-19T12:12:13.965Z,95226.95
2023-02-19T12:15:17.796Z,95232.60
2023-02-19T12:18:05.850Z,95239.39
2023-02-19T12:20:44.333Z,95248.63
2023-02-19T12:23:35.862Z,95249.31
2023-02-19T12:26:17.040Z,95255.28
2023-02-19T12:28:57.713Z,95262.52
2023-02-19T12:31:51.413Z,95272.34
2023-02-19T12:34:44.034Z,95279.60
2023-02-19T12:37:28.362Z,95279.55
2023-02-19T12:40:12.020Z,95279.85
2023-02-19T12:42:52.797Z,95278.14
2023-02-19T12:45:45.510Z,95260.35
2023-02-19T12:48:35.843Z,95247.50
2023-02-19T12:51:21.374Z,95255.13
2023-02-19T12:53:49.611Z,95256.63
2023-02-19T12:56:23.639Z,95260.52
2023-02-19T12:59:24.240Z,95257.37
2023-02-19T13:02:03.295Z,95258.29
2023-02-19T13:04:43.491Z,95261.64
2023-02-19T13:07:19.023Z,95259.92
2023-02-19T13:10:04.680Z,95247.03
2023-02-19T13:12:38.965Z,95238.32
2023-02-19T13:15:18.977Z,95223.51
2023-02-19T13:17:51.575Z,95216.03
2023-02-19T13:20:37.270Z,95214.08
2023-02-19T13:24:03.256Z,95203.37
2023-02-19T13:27:05.734Z,95197.48
2023-02-19T13:29:50.707Z,95200.02
2023-02-19T13:33:07.619Z,95189.19
2023-02-19T13:35:57.404Z,95178.10
2023-02-19T13:38:26.191Z,95167.52
2023-02-19T13:40:57.817Z,95166.14
2023-02-19T13:43:40.403Z,95161.95
2023-02-19T13:46:12.396Z,95167.08
2023-02-19T13:48:42.652Z,95156.77
2023-02-19T13:51:17.483Z,95150.86
2023-02-19T13:53:45.737Z,95162.05
2023-02-19T13:56:35.556Z,95163.09
2023-02-19T13:59:37.214Z,95162.78
2023-02-19T14:02:26.830Z,95155.71
2023-02-19T14:05:13.365Z,95153.83
2023-02-19T14:07:50.551Z,95146.48
2023-02-19T14:10:41.083Z,95149.90
2023-02-19T14:13:09.615Z,95152.16
2023-02-19T14:15:49.889Z,95149.55
2023-02-19T14:18:43.285Z,95144.45
2023-02-19T14:21:26.142Z,95144.89
2023-02-19T14:23:58.040Z,95150.29
2023-02-19T14:26:27.399Z,95148.83
2023-02-19T14:28:56.273Z,95154.39
2023-02-19T14:31:34.291Z,95154.34
2023-02-19T14:34:07.055Z,95152.91
2023-02-19T14:36:50.352Z,95146.55
2023-02-19T14:39:35.339Z,95145.84
2023-02-19T14:42:14.380Z,95134.57
2023-02-19T14:44:51.553Z,95118.38
2023-02-19T14:47:26.168Z,95116.05
2023-02-19T14:49:58.387Z,95110.64
2023-02-19T14:52:36.991Z,95100.98
2023-02-19T14:55:30.560Z,95093.77
2023-02-19T14:58:01.360Z,95085.55
2023-02-19T15:00:34.298Z,95072.90
2023-02-19T15:03:03.983Z,95072.35
2023-02-19T15:05:36.783Z,95075.26
2023-02-19T15:08:12.453Z,95082.69
2023-02-19T15:10:43.378Z,95093.41
2023-02-19T15:13:17.509Z,95089.50
2023-02-19T15:15:46.896Z,95092.39
2023-02-19T15:18:21.938Z,95087.93
2023-02-19T15:20:51.875Z,95104.03
2023-02-19T15:23:25.532Z,95129.85
2023-02-19T15:25:54.034Z,95158.56
2023-02-19T15:28:34.118Z,95150.89
2023-02-19T15:31:03.517Z,95151.94
2023-02-19T15:33:32.495Z,95142.63
2023-02-19T15:36:06.961Z,95144.77
2023-02-19T15:38:35.916Z,95148.56
2023-02-19T15:41:05.213Z,95141.67
2023-02-19T15:43:53.968Z,95157.13
2023-02-19T15:46:25.288Z,95147.45
2023-02-19T15:49:13.871Z,95137.50
2023-02-19T15:51:51.162Z,95147.13
2023-02-19T15:54:38.126Z,95130.38
2023-02-19T15:57:14.477Z,95154.81
2023-02-19T15:59:51.017Z,95138.65
2023-02-19T16:02:19.973Z,95116.20
2023-02-19T16:04:48.399Z,95128.10
2023-02-19T16:07:28.272Z,95122.14
2023-02-19T16:10:26.138Z,95117.40
2023-02-19T16:12:58.841Z,95113.28
2023-02-19T16:15:29.348Z,95109.45
2023-02-19T16:17:58.936Z,95102.31
2023-02-19T16:20:33.480Z,95100.05
2023-02-19T16:23:13.214Z,95092.22
2023-02-19T16:25:44.670Z,95084.53
2023-02-19T16:28:26.682Z,95090.38
2023-02-19T16:31:00.164Z,95080.06
2023-02-19T16:33:36.298Z,95105.34
2023-02-19T16:36:20.605Z,95140.95
2023-02-19T16:39:07.286Z,95161.08
2023-02-19T16:41:48.174Z,95150.39
2023-02-19T16:44:25.484Z,95156.41
2023-02-19T16:46:57.415Z,95156.90
2023-02-19T16:49:25.737Z,95160.02
2023-02-19T16:51:54.840Z,95160.46
2023-02-19T16:54:23.072Z,95167.11
2023-02-19T16:56:51.203Z,95166.04
2023-02-19T16:59:19.320Z,95165.34
2023-02-19T17:01:48.006Z,95161.90
2023-02-19T17:04:16.605Z,95165.98
2023-02-19T17:06:45.798Z,95169.24
2023-02-19T17:09:13.967Z,95167.84
2023-02-19T17:11:42.247Z,95171.02
2023-02-19T17:14:10.630Z,95159.80
2023-02-19T17:16:41.982Z,95152.09
2023-02-19T17:19:17.113Z,95147.63
2023-02-19T17:21:46.947Z,95150.68
2023-02-19T17:24:15.300Z,95156.22
2023-02-19T17:26:43.448Z,95161.91
2023-02-19T17:29:15.381Z,95167.72
2023-02-19T17:31:43.970Z,95177.97
2023-02-19T17:34:12.436Z,95181.50
2023-02-19T17:36:43.458Z,95188.19
2023-02-19T17:39:16.140Z,95191.88
2023-02-19T17:41:44.540Z,95191.63
2023-02-19T17:44:12.803Z,95200.31
2023-02-19T17:46:42.034Z,95202.02
2023-02-19T17:49:13.447Z,95198.41
2023-02-19T17:51:41.635Z,95198.48
2023-02-19T17:54:09.680Z,95204.46
2023-02-19T17:56:43.323Z,95207.34
2023-02-19T17:59:12.573Z,95199.40
2023-02-19T18:01:40.659Z,95199.71
2023-02-19T18:04:09.024Z,95202.16
2023-02-19T18:06:37.746Z,95192.92
2023-02-19T18:09:06.075Z,95194.15
2023-02-19T18:11:35.948Z,95200.83
2023-02-19T18:14:05.756Z,95197.64
2023-02-19T18:16:33.824Z,95195.83
2023-02-19T18:19:04.472Z,95188.05
2023-02-19T18:21:32.741Z,95186.49
2023-02-19T18:24:00.766Z,95188.57
2023-02-19T18:26:29.007Z,95194.30
2023-02-19T18:28:57.164Z,95208.56
2023-02-19T18:31:25.432Z,95219.55
2023-02-19T18:33:53.821Z,95233.59
2023-02-19T18:36:24.561Z,95242.19
2023-02-19T18:38:52.834Z,95253.70
2023-02-19T18:41:21.478Z,95263.02
2023-02-19T18:43:50.577Z,95265.15
2023-02-19T18:46:22.378Z,95268.21
2023-02-19T18:48:50.475Z,95280.48
2023-02-19T18:51:21.167Z,95275.45
2023-02-19T18:53:50.026Z,95274.06
2023-02-19T18:56:18.439Z,95281.08
2023-02-19T18:58:48.237Z,95282.44
2023-02-19T19:01:18.531Z,95288.57
2023-02-19T19:03:46.656Z,95302.33
2023-02-19T19:06:15.082Z,95304.13
2023-02-19T19:08:43.749Z,95308.17
2023-02-19T19:11:12.147Z,95313.30
2023-02-19T19:13:40.612Z,95319.52
2023-02-19T19:16:08.917Z,95323.08
2023-02-19T19:18:38.396Z,95327.09
2023-02-19T19:21:06.878Z,95339.52
2023-02-19T19:23:36.387Z,95345.94
2023-02-19T19:26:06.255Z,95360.81
2023-02-19T19:28:34.487Z,95376.34
2023-02-19T19:31:03.227Z,95387.35
2023-02-19T19:33:31.513Z,95393.27
2023-02-19T19:35:59.927Z,95400.61
2023-02-19T19:38:28.456Z,95405.66
2023-02-19T19:40:56.630Z,95420.40
2023-02-19T19:43:32.646Z,95425.92
2023-02-19T19:46:03.488Z,95435.41
2023-02-19T19:48:33.320Z,95440.08
2023-02-19T19:51:01.586Z,95442.27
2023-02-19T19:53:29.859Z,95446.70
2023-02-19T19:55:58.165Z,95452.63
2023-02-19T19:58:26.331Z,95458.77
2023-02-19T20:00:55.279Z,95465.52
2023-02-19T20:03:25.117Z,95463.58
2023-02-19T20:05:53.803Z,95460.13
2023-02-19T20:08:22.492Z,95458.91
2023-02-19T20:10:50.668Z,95464.20
2023-02-19T20:13:24.377Z,95471.31
2023-02-19T20:15:52.798Z,95475.23
2023-02-19T20:18:21.757Z,95474.30
2023-02-19T20:20:49.910Z,95470.33
2023-02-19T20:23:18.428Z,95474.42
2023-02-19T20:25:48.935Z,95478.08
2023-02-19T20:28:17.180Z,95486.85
2023-02-19T20:30:45.374Z,95495.71
2023-02-19T20:33:13.457Z,95494.92
2023-02-19T20:35:41.720Z,95492.05
2023-02-19T20:38:09.835Z,95498.44
2023-02-19T20:40:38.302Z,95500.73
2023-02-19T20:43:06.677Z,95500.82
2023-02-19T20:45:34.955Z,95508.92
2023-02-19T20:48:03.130Z,95510.54
2023-02-19T20:50:31.618Z,95514.79
2023-02-19T20:52:59.995Z,95522.73
2023-02-19T20:55:28.989Z,95526.58
2023-02-19T20:57:57.167Z,95537.63
2023-02-19T21:00:25.658Z,95550.44
2023-02-19T21:02:53.945Z,95558.19
2023-02-19T21:05:22.826Z,95557.07
2023-02-19T21:07:51.198Z,95565.23
2023-02-19T21:10:19.582Z,95576.02
2023-02-19T21:12:48.271Z,95579.18
2023-02-19T21:15:16.935Z,95575.92
2023-02-19T21:17:46.742Z,95586.52
2023-02-19T21:20:18.104Z,95597.83
2023-02-19T21:22:46.515Z,95611.56
2023-02-19T21:25:14.880Z,95611.27
2023-02-19T21:27:43.137Z,95619.96
2023-02-19T21:30:11.988Z,95634.39
2023-02-19T21:32:40.050Z,95633.58
2023-02-19T21:35:08.812Z,95637.33
2023-02-19T21:37:36.995Z,95643.71
2023-02-19T21:40:06.670Z,95654.75
2023-02-19T21:42:34.909Z,95652.50
2023-02-19T21:45:03.979Z,95657.88
2023-02-19T21:47:32.032Z,95651.94
2023-02-19T21:50:00.357Z,95648.73
2023-02-19T21:52:29.118Z,95653.01
2023-02-19T21:54:58.311Z,95659.13
2023-02-19T21:57:26.806Z,95664.20
2023-02-19T21:59:55.075Z,95670.66
2023-02-19T22:02:24.581Z,95680.17
2023-02-19T22:04:54.318Z,95686.66
2023-02-19T22:07:22.876Z,95695.49
2023-02-19T22:09:52.182Z,95692.44
2023-02-19T22:12:20.777Z,95697.16
2023-02-19T22:14:48.816Z,95702.14
2023-02-19T22:17:17.235Z,95715.52
2023-02-19T22:19:45.392Z,95716.34
2023-02-19T22:22:14.433Z,95717.86
2023-02-19T22:24:42.426Z,95722.57
2023-02-19T22:27:10.635Z,95727.29
2023-02-19T22:29:39.134Z,95731.70
2023-02-19T22:32:07.582Z,95731.90
2023-02-19T22:34:42.760Z,95733.16
2023-02-19T22:37:11.080Z,95736.20
2023-02-19T22:39:39.122Z,95746.70
2023-02-19T22:42:07.452Z,95746.11
2023-02-19T22:44:35.667Z,95751.90
2023-02-19T22:47:03.828Z,95757.15
2023-02-19T22:49:32.145Z,95767.23
2023-02-19T22:52:07.538Z,95769.40
2023-02-19T22:54:36.551Z,95767.02
2023-02-19T22:57:05.715Z,95765.94
2023-02-19T22:59:33.962Z,95758.95
2023-02-19T23:02:02.301Z,95758.88
2023-02-19T23:04:30.469Z,95763.81
2023-02-19T23:06:58.550Z,95763.58
2023-02-19T23:09:29.425Z,95763.27
2023-02-19T23:12:06.073Z,95765.08
2023-02-19T23:14:35.598Z,95765.13
2023-02-19T23:17:03.872Z,95763.42
2023-02-19T23:19:32.848Z,95761.59
2023-02-19T23:22:01.242Z,95763.32
2023-02-19T23:24:29.403Z,95767.23
2023-02-19T23:26:59.940Z,95766.52
2023-02-19T23:29:30.616Z,95768.67
2023-02-19T23:32:00.418Z,95768.30
2023-02-19T23:34:29.030Z,95767.33
2023-02-19T23:36:59.706Z,95781.41
2023-02-19T23:39:28.603Z,95788.49
2023-02-19T23:41:57.773Z,95799.16
2023-02-19T23:44:26.295Z,95809.32
2023-02-19T23:46:54.351Z,95815.67
2023-02-19T23:49:23.142Z,95827.92
2023-02-19T23:51:51.937Z,95831.37
2023-02-19T23:54:20.377Z,95832.91
2023-02-19T23:56:48.495Z,95837.60
2023-02-19T23:59:16.964Z,95841.76
